sensor_id;sensor_type;location;lat;lon;timestamp;pressure;altitude;pressure_sealevel;temperature;humidity
36386;BME280;24125;47.482;8.770;2023-01-31T00:02:11;97268.41;;;7.21;67.34
36386;BME280;24125;47.482;8.770;2023-01-31T00:04:46;97263.94;;;7.16;67.18
36386;BME280;24125;47.482;8.770;2023-01-31T00:07:19;97273.53;;;7.12;67.60
36386;BME280;24125;47.482;8.770;2023-01-31T00:09:52;97275.38;;;7.12;67.70
36386;BME280;24125;47.482;8.770;2023-01-31T00:12:25;97266.09;;;7.09;67.49
36386;BME280;24125;47.482;8.770;2023-01-31T00:14:58;97259.72;;;7.10;67.64
36386;BME280;24125;47.482;8.770;2023-01-31T00:17:31;97259.44;;;7.12;67.42
36386;BME280;24125;47.482;8.770;2023-01-31T00:20:08;97252.00;;;7.14;67.41
36386;BME280;24125;47.482;8.770;2023-01-31T00:22:41;97254.66;;;7.14;67.56
36386;BME280;24125;47.482;8.770;2023-01-31T00:25:14;97254.66;;;7.14;68.00
36386;BME280;24125;47.482;8.770;2023-01-31T00:27:47;97257.84;;;7.16;67.53
36386;BME280;24125;47.482;8.770;2023-01-31T00:30:20;97243.50;;;7.17;67.96
36386;BME280;24125;47.482;8.770;2023-01-31T00:32:53;97244.78;;;7.19;68.18
36386;BME280;24125;47.482;8.770;2023-01-31T00:35:27;97241.84;;;7.21;67.57
36386;BME280;24125;47.482;8.770;2023-01-31T00:38:00;97239.19;;;7.21;68.12
36386;BME280;24125;47.482;8.770;2023-01-31T00:40:33;97241.31;;;7.24;67.55
36386;BME280;24125;47.482;8.770;2023-01-31T00:43:07;97232.56;;;7.24;67.70
36386;BME280;24125;47.482;8.770;2023-01-31T00:45:40;97231.75;;;7.23;67.83
36386;BME280;24125;47.482;8.770;2023-01-31T00:48:13;97230.97;;;7.23;67.52
36386;BME280;24125;47.482;8.770;2023-01-31T00:50:47;97229.38;;;7.22;67.09
36386;BME280;24125;47.482;8.770;2023-01-31T00:53:21;97228.84;;;7.19;66.91
36386;BME280;24125;47.482;8.770;2023-01-31T00:56:00;97228.63;;;7.16;66.99
36386;BME280;24125;47.482;8.770;2023-01-31T00:58:33;97220.41;;;7.12;67.50
36386;BME280;24125;47.482;8.770;2023-01-31T01:01:09;97223.88;;;7.13;67.10
36386;BME280;24125;47.482;8.770;2023-01-31T01:03:43;97212.22;;;7.09;67.81
36386;BME280;24125;47.482;8.770;2023-01-31T01:06:18;97209.03;;;7.07;67.93
36386;BME280;24125;47.482;8.770;2023-01-31T01:08:52;97214.91;;;7.04;67.36
36386;BME280;24125;47.482;8.770;2023-01-31T01:11:27;97217.03;;;7.02;67.81
36386;BME280;24125;47.482;8.770;2023-01-31T01:14:00;97211.50;;;6.98;67.35
36386;BME280;24125;47.482;8.770;2023-01-31T01:16:35;97203.81;;;6.97;68.21
36386;BME280;24125;47.482;8.770;2023-01-31T01:19:12;97209.91;;;6.97;68.06
36386;BME280;24125;47.482;8.770;2023-01-31T01:21:50;97214.44;;;6.97;67.62
36386;BME280;24125;47.482;8.770;2023-01-31T01:24:23;97216.81;;;6.93;68.03
36386;BME280;24125;47.482;8.770;2023-01-31T01:26:56;97228.25;;;6.94;67.83
36386;BME280;24125;47.482;8.770;2023-01-31T01:29:29;97225.38;;;6.90;67.74
36386;BME280;24125;47.482;8.770;2023-01-31T01:32:03;97224.56;;;6.90;67.46
36386;BME280;24125;47.482;8.770;2023-01-31T01:34:36;97237.06;;;6.84;66.84
36386;BME280;24125;47.482;8.770;2023-01-31T01:37:10;97237.91;;;6.79;66.69
36386;BME280;24125;47.482;8.770;2023-01-31T01:39:51;97233.16;;;6.71;66.55
36386;BME280;24125;47.482;8.770;2023-01-31T01:42:25;97226.31;;;6.60;66.93
36386;BME280;24125;47.482;8.770;2023-01-31T01:45:00;97227.69;;;6.53;66.84
36386;BME280;24125;47.482;8.770;2023-01-31T01:47:37;97230.91;;;6.44;67.11
36386;BME280;24125;47.482;8.770;2023-01-31T01:50:14;97229.38;;;6.33;66.89
36386;BME280;24125;47.482;8.770;2023-01-31T01:52:53;97228.34;;;6.24;67.06
36386;BME280;24125;47.482;8.770;2023-01-31T01:55:30;97228.38;;;6.14;67.45
36386;BME280;24125;47.482;8.770;2023-01-31T01:58:09;97230.53;;;6.07;67.86
36386;BME280;24125;47.482;8.770;2023-01-31T02:00:44;97225.53;;;6.00;68.23
36386;BME280;24125;47.482;8.770;2023-01-31T02:03:18;97230.28;;;5.98;68.63
36386;BME280;24125;47.482;8.770;2023-01-31T02:05:53;97226.06;;;5.97;68.45
36386;BME280;24125;47.482;8.770;2023-01-31T02:08:31;97224.19;;;5.98;69.13
36386;BME280;24125;47.482;8.770;2023-01-31T02:11:09;97228.44;;;5.99;69.33
36386;BME280;24125;47.482;8.770;2023-01-31T02:13:45;97236.66;;;6.02;69.35
36386;BME280;24125;47.482;8.770;2023-01-31T02:16:18;97226.28;;;6.06;69.37
36386;BME280;24125;47.482;8.770;2023-01-31T02:18:51;97230.78;;;6.11;69.53
36386;BME280;24125;47.482;8.770;2023-01-31T02:21:43;97231.56;;;6.16;69.15
36386;BME280;24125;47.482;8.770;2023-01-31T02:28:22;97218.53;;;6.25;68.75
36386;BME280;24125;47.482;8.770;2023-01-31T02:31:29;97227.53;;;6.29;69.12
36386;BME280;24125;47.482;8.770;2023-01-31T02:34:13;97243.19;;;6.30;68.23
36386;BME280;24125;47.482;8.770;2023-01-31T02:36:57;97245.06;;;6.30;67.90
36386;BME280;24125;47.482;8.770;2023-01-31T02:39:38;97240.28;;;6.27;67.91
36386;BME280;24125;47.482;8.770;2023-01-31T02:42:17;97235.28;;;6.20;68.27
36386;BME280;24125;47.482;8.770;2023-01-31T02:44:55;97234.78;;;6.13;67.88
36386;BME280;24125;47.482;8.770;2023-01-31T02:47:38;97230.78;;;6.11;68.54
36386;BME280;24125;47.482;8.770;2023-01-31T02:50:20;97230.78;;;6.05;67.97
36386;BME280;24125;47.482;8.770;2023-01-31T02:52:58;97243.53;;;6.03;68.01
36386;BME280;24125;47.482;8.770;2023-01-31T02:55:36;97240.63;;;6.00;68.36
36386;BME280;24125;47.482;8.770;2023-01-31T02:58:31;97242.25;;;5.96;68.81
36386;BME280;24125;47.482;8.770;2023-01-31T03:01:06;97235.88;;;5.92;68.84
36386;BME280;24125;47.482;8.770;2023-01-31T03:03:43;97234.56;;;5.89;69.08
36386;BME280;24125;47.482;8.770;2023-01-31T03:06:51;97225.53;;;5.90;68.50
36386;BME280;24125;47.482;8.770;2023-01-31T03:09:35;97224.25;;;5.88;69.16
36386;BME280;24125;47.482;8.770;2023-01-31T03:12:31;97231.38;;;5.87;68.68
36386;BME280;24125;47.482;8.770;2023-01-31T03:15:33;97233.50;;;5.85;68.22
36386;BME280;24125;47.482;8.770;2023-01-31T03:18:23;97236.94;;;5.81;68.44
36386;BME280;24125;47.482;8.770;2023-01-31T03:21:01;97239.06;;;5.79;68.69
36386;BME280;24125;47.482;8.770;2023-01-31T03:23:37;97245.16;;;5.74;68.34
36386;BME280;24125;47.482;8.770;2023-01-31T03:26:12;97243.03;;;5.71;68.22
36386;BME280;24125;47.482;8.770;2023-01-31T03:28:47;97243.06;;;5.66;67.84
36386;BME280;24125;47.482;8.770;2023-01-31T03:31:27;97248.38;;;5.61;67.90
36386;BME280;24125;47.482;8.770;2023-01-31T03:34:03;97249.41;;;5.55;67.94
36386;BME280;24125;47.482;8.770;2023-01-31T03:36:42;97253.94;;;5.49;68.27
36386;BME280;24125;47.482;8.770;2023-01-31T03:39:28;97255.00;;;5.43;68.22
36386;BME280;24125;47.482;8.770;2023-01-31T03:42:06;97257.13;;;5.36;68.14
36386;BME280;24125;47.482;8.770;2023-01-31T03:44:44;97261.88;;;5.29;67.71
36386;BME280;24125;47.482;8.770;2023-01-31T03:47:22;97253.66;;;5.20;67.41
36386;BME280;24125;47.482;8.770;2023-01-31T03:49:58;97261.34;;;5.12;67.31
36386;BME280;24125;47.482;8.770;2023-01-31T03:52:35;97267.41;;;5.02;67.06
36386;BME280;24125;47.482;8.770;2023-01-31T03:55:15;97267.13;;;4.93;66.73
36386;BME280;24125;47.482;8.770;2023-01-31T03:57:51;97272.44;;;4.83;66.74
36386;BME280;24125;47.482;8.770;2023-01-31T04:00:27;97271.06;;;4.71;66.69
36386;BME280;24125;47.482;8.770;2023-01-31T04:03:04;97269.97;;;4.62;66.94
36386;BME280;24125;47.482;8.770;2023-01-31T04:05:38;97267.03;;;4.48;66.97
36386;BME280;24125;47.482;8.770;2023-01-31T04:08:11;97264.59;;;4.36;67.12
36386;BME280;24125;47.482;8.770;2023-01-31T04:10:46;97260.06;;;4.27;67.32
36386;BME280;24125;47.482;8.770;2023-01-31T04:13:19;97256.31;;;4.17;67.14
36386;BME280;24125;47.482;8.770;2023-01-31T04:15:54;97254.72;;;4.06;67.09
36386;BME280;24125;47.482;8.770;2023-01-31T04:18:27;97266.53;;;3.99;67.22
36386;BME280;24125;47.482;8.770;2023-01-31T04:21:00;97270.72;;;3.90;67.54
36386;BME280;24125;47.482;8.770;2023-01-31T04:23:33;97279.91;;;3.82;67.82
36386;BME280;24125;47.482;8.770;2023-01-31T04:26:07;97280.16;;;3.75;68.03
36386;BME280;24125;47.482;8.770;2023-01-31T04:28:40;97288.28;;;3.69;68.57
36386;BME280;24125;47.482;8.770;2023-01-31T04:31:13;97283.50;;;3.66;68.80
36386;BME280;24125;47.482;8.770;2023-01-31T04:33:46;97278.75;;;3.63;69.30
36386;BME280;24125;47.482;8.770;2023-01-31T04:36:19;97279.25;;;3.60;69.62
36386;BME280;24125;47.482;8.770;2023-01-31T04:38:52;97279.00;;;3.61;70.07
36386;BME280;24125;47.482;8.770;2023-01-31T04:41:27;97291.16;;;3.62;70.24
36386;BME280;24125;47.482;8.770;2023-01-31T04:44:00;97281.41;;;3.63;70.78
36386;BME280;24125;47.482;8.770;2023-01-31T04:46:32;97282.47;;;3.67;71.22
36386;BME280;24125;47.482;8.770;2023-01-31T04:49:05;97281.44;;;3.73;71.33
36386;BME280;24125;47.482;8.770;2023-01-31T04:51:39;97297.09;;;3.79;71.63
36386;BME280;24125;47.482;8.770;2023-01-31T04:54:12;97281.81;;;3.87;71.78
36386;BME280;24125;47.482;8.770;2023-01-31T04:56:47;97287.41;;;3.95;71.59
36386;BME280;24125;47.482;8.770;2023-01-31T04:59:20;97294.06;;;4.03;71.83
36386;BME280;24125;47.482;8.770;2023-01-31T05:01:53;97286.44;;;4.11;71.75
36386;BME280;24125;47.482;8.770;2023-01-31T05:04:26;97294.91;;;4.18;71.55
36386;BME280;24125;47.482;8.770;2023-01-31T05:06:58;97292.59;;;4.27;71.62
36386;BME280;24125;47.482;8.770;2023-01-31T05:09:31;97298.19;;;4.36;71.38
36386;BME280;24125;47.482;8.770;2023-01-31T05:12:06;97298.47;;;4.44;71.30
36386;BME280;24125;47.482;8.770;2023-01-31T05:14:39;97299.81;;;4.52;70.95
36386;BME280;24125;47.482;8.770;2023-01-31T05:17:12;97293.78;;;4.57;71.05
36386;BME280;24125;47.482;8.770;2023-01-31T05:19:45;97301.47;;;4.63;71.09
36386;BME280;24125;47.482;8.770;2023-01-31T05:22:19;97304.41;;;4.67;71.23
36386;BME280;24125;47.482;8.770;2023-01-31T05:24:53;97317.13;;;4.75;71.12
36386;BME280;24125;47.482;8.770;2023-01-31T05:27:30;97323.22;;;4.80;70.90
36386;BME280;24125;47.482;8.770;2023-01-31T05:30:04;97324.25;;;4.84;71.04
36386;BME280;24125;47.482;8.770;2023-01-31T05:32:37;97324.56;;;4.88;70.93
36386;BME280;24125;47.482;8.770;2023-01-31T05:35:10;97325.09;;;4.95;70.91
36386;BME280;24125;47.482;8.770;2023-01-31T05:37:43;97314.00;;;4.98;70.94
36386;BME280;24125;47.482;8.770;2023-01-31T05:40:16;97314.78;;;5.04;70.69
36386;BME280;24125;47.482;8.770;2023-01-31T05:42:54;97309.53;;;5.09;70.58
36386;BME280;24125;47.482;8.770;2023-01-31T05:45:27;97315.88;;;5.13;70.69
36386;BME280;24125;47.482;8.770;2023-01-31T05:48:00;97319.84;;;5.15;70.57
36386;BME280;24125;47.482;8.770;2023-01-31T05:50:34;97315.63;;;5.19;70.42
36386;BME280;24125;47.482;8.770;2023-01-31T05:53:07;97314.31;;;5.22;70.55
36386;BME280;24125;47.482;8.770;2023-01-31T05:55:40;97314.84;;;5.24;70.43
36386;BME280;24125;47.482;8.770;2023-01-31T05:58:15;97317.78;;;5.27;70.34
36386;BME280;24125;47.482;8.770;2023-01-31T06:00:48;97326.47;;;5.28;70.32
36386;BME280;24125;47.482;8.770;2023-01-31T06:03:21;97323.06;;;5.27;70.56
36386;BME280;24125;47.482;8.770;2023-01-31T06:05:54;97332.06;;;5.31;70.42
36386;BME280;24125;47.482;8.770;2023-01-31T06:08:27;97326.75;;;5.31;70.15
36386;BME280;24125;47.482;8.770;2023-01-31T06:11:00;97337.63;;;5.35;70.06
36386;BME280;24125;47.482;8.770;2023-01-31T06:13:37;97340.00;;;5.37;70.67
36386;BME280;24125;47.482;8.770;2023-01-31T06:16:10;97332.06;;;5.37;70.40
36386;BME280;24125;47.482;8.770;2023-01-31T06:18:43;97329.69;;;5.40;70.55
36386;BME280;24125;47.482;8.770;2023-01-31T06:21:16;97333.94;;;5.41;70.50
36386;BME280;24125;47.482;8.770;2023-01-31T06:23:49;97337.13;;;5.43;70.53
36386;BME280;24125;47.482;8.770;2023-01-31T06:26:22;97331.28;;;5.46;70.29
36386;BME280;24125;47.482;8.770;2023-01-31T06:28:56;97335.25;;;5.49;70.52
36386;BME280;24125;47.482;8.770;2023-01-31T06:31:29;97333.16;;;5.51;70.39
36386;BME280;24125;47.482;8.770;2023-01-31T06:34:02;97329.19;;;5.53;70.49
36386;BME280;24125;47.482;8.770;2023-01-31T06:36:35;97331.28;;;5.56;70.36
36386;BME280;24125;47.482;8.770;2023-01-31T06:39:09;97328.91;;;5.60;70.16
36386;BME280;24125;47.482;8.770;2023-01-31T06:41:42;97328.66;;;5.61;70.71
36386;BME280;24125;47.482;8.770;2023-01-31T06:44:16;97323.06;;;5.63;70.12
36386;BME280;24125;47.482;8.770;2023-01-31T06:46:49;97332.34;;;5.65;70.21
36386;BME280;24125;47.482;8.770;2023-01-31T06:49:22;97335.00;;;5.65;70.35
36386;BME280;24125;47.482;8.770;2023-01-31T06:51:55;97340.81;;;5.67;70.08
36386;BME280;24125;47.482;8.770;2023-01-31T06:54:28;97343.47;;;5.67;70.00
36386;BME280;24125;47.482;8.770;2023-01-31T06:57:02;97349.31;;;5.69;70.12
36386;BME280;24125;47.482;8.770;2023-01-31T06:59:36;97344.81;;;5.70;69.85
36386;BME280;24125;47.482;8.770;2023-01-31T07:02:09;97348.50;;;5.69;69.72
36386;BME280;24125;47.482;8.770;2023-01-31T07:04:42;97345.88;;;5.69;69.69
36386;BME280;24125;47.482;8.770;2023-01-31T07:07:15;97347.97;;;5.67;69.85
36386;BME280;24125;47.482;8.770;2023-01-31T07:09:48;97350.88;;;5.65;69.66
36386;BME280;24125;47.482;8.770;2023-01-31T07:12:21;97345.59;;;5.65;69.68
36386;BME280;24125;47.482;8.770;2023-01-31T07:14:56;97348.25;;;5.65;69.79
36386;BME280;24125;47.482;8.770;2023-01-31T07:17:28;97351.69;;;5.66;69.95
36386;BME280;24125;47.482;8.770;2023-01-31T07:20:02;97356.97;;;5.66;70.10
36386;BME280;24125;47.482;8.770;2023-01-31T07:22:35;97363.06;;;5.66;69.80
36386;BME280;24125;47.482;8.770;2023-01-31T07:25:08;97356.97;;;5.66;70.01
36386;BME280;24125;47.482;8.770;2023-01-31T07:27:41;97371.03;;;5.66;70.28
36386;BME280;24125;47.482;8.770;2023-01-31T07:30:16;97368.66;;;5.70;70.07
36386;BME280;24125;47.482;8.770;2023-01-31T07:32:49;97376.88;;;5.68;70.05
36386;BME280;24125;47.482;8.770;2023-01-31T07:35:22;97377.41;;;5.71;70.15
36386;BME280;24125;47.482;8.770;2023-01-31T07:37:55;97380.31;;;5.74;70.26
36386;BME280;24125;47.482;8.770;2023-01-31T07:40:28;97376.59;;;5.75;69.98
36386;BME280;24125;47.482;8.770;2023-01-31T07:43:01;97377.94;;;5.78;69.88
36386;BME280;24125;47.482;8.770;2023-01-31T07:45:35;97370.50;;;5.80;69.74
36386;BME280;24125;47.482;8.770;2023-01-31T07:48:09;97375.53;;;5.81;69.71
36386;BME280;24125;47.482;8.770;2023-01-31T07:50:42;97363.34;;;5.80;70.07
36386;BME280;24125;47.482;8.770;2023-01-31T07:53:15;97358.56;;;5.82;69.92
36386;BME280;24125;47.482;8.770;2023-01-31T07:55:47;97354.59;;;5.85;69.75
36386;BME280;24125;47.482;8.770;2023-01-31T07:58:20;97357.00;;;5.86;70.06
36386;BME280;24125;47.482;8.770;2023-01-31T08:00:55;97353.81;;;5.89;70.37
36386;BME280;24125;47.482;8.770;2023-01-31T08:03:45;97355.16;;;5.92;70.08
36386;BME280;24125;47.482;8.770;2023-01-31T08:06:18;97351.44;;;5.98;70.68
36386;BME280;24125;47.482;8.770;2023-01-31T08:08:51;97350.91;;;6.01;70.78
36386;BME280;24125;47.482;8.770;2023-01-31T08:11:24;97356.19;;;6.06;70.19
36386;BME280;24125;47.482;8.770;2023-01-31T08:13:59;97361.50;;;6.11;70.41
36386;BME280;24125;47.482;8.770;2023-01-31T08:16:34;97358.56;;;6.18;70.10
36386;BME280;24125;47.482;8.770;2023-01-31T08:19:08;97357.00;;;6.22;70.17
36386;BME280;24125;47.482;8.770;2023-01-31T08:21:41;97354.56;;;6.25;69.39
36386;BME280;24125;47.482;8.770;2023-01-31T08:24:14;97350.34;;;6.29;69.95
36386;BME280;24125;47.482;8.770;2023-01-31T08:26:47;97359.31;;;6.33;69.56
36386;BME280;24125;47.482;8.770;2023-01-31T08:29:20;97359.06;;;6.35;69.12
36386;BME280;24125;47.482;8.770;2023-01-31T08:31:55;97355.09;;;6.37;69.10
36386;BME280;24125;47.482;8.770;2023-01-31T08:34:28;97359.34;;;6.38;69.45
36386;BME280;24125;47.482;8.770;2023-01-31T08:37:01;97360.13;;;6.39;69.57
36386;BME280;24125;47.482;8.770;2023-01-31T08:39:34;97354.28;;;6.42;69.75
36386;BME280;24125;47.482;8.770;2023-01-31T08:42:06;97348.69;;;6.43;69.95
36386;BME280;24125;47.482;8.770;2023-01-31T08:44:39;97346.31;;;6.47;69.83
36386;BME280;24125;47.482;8.770;2023-01-31T08:47:15;97337.25;;;6.53;69.43
36386;BME280;24125;47.482;8.770;2023-01-31T08:49:48;97340.19;;;6.57;69.95
36386;BME280;24125;47.482;8.770;2023-01-31T08:52:21;97341.22;;;6.61;69.39
36386;BME280;24125;47.482;8.770;2023-01-31T08:54:54;97347.59;;;6.65;68.91
36386;BME280;24125;47.482;8.770;2023-01-31T08:57:27;97342.28;;;6.65;68.74
36386;BME280;24125;47.482;8.770;2023-01-31T09:00:01;97343.88;;;6.66;68.46
36386;BME280;24125;47.482;8.770;2023-01-31T09:02:35;97354.47;;;6.66;67.92
36386;BME280;24125;47.482;8.770;2023-01-31T09:05:08;97338.03;;;6.64;68.14
36386;BME280;24125;47.482;8.770;2023-01-31T09:07:41;97341.22;;;6.61;68.90
36386;BME280;24125;47.482;8.770;2023-01-31T09:10:14;97346.78;;;6.59;68.75
36386;BME280;24125;47.482;8.770;2023-01-31T09:12:47;97346.28;;;6.57;68.78
36386;BME280;24125;47.482;8.770;2023-01-31T09:15:20;97346.00;;;6.59;68.67
36386;BME280;24125;47.482;8.770;2023-01-31T09:17:55;97352.09;;;6.59;69.17
36386;BME280;24125;47.482;8.770;2023-01-31T09:20:28;97348.66;;;6.59;68.80
36386;BME280;24125;47.482;8.770;2023-01-31T09:23:01;97348.13;;;6.62;69.60
36386;BME280;24125;47.482;8.770;2023-01-31T09:25:34;97347.59;;;6.65;69.38
36386;BME280;24125;47.482;8.770;2023-01-31T09:28:17;97354.97;;;6.73;70.14
36386;BME280;24125;47.482;8.770;2023-01-31T09:30:51;97351.22;;;6.79;69.68
36386;BME280;24125;47.482;8.770;2023-01-31T09:33:26;97345.09;;;6.83;68.99
36386;BME280;24125;47.482;8.770;2023-01-31T09:36:00;97344.28;;;6.88;69.00
36386;BME280;24125;47.482;8.770;2023-01-31T09:38:34;97340.31;;;6.91;68.43
36386;BME280;24125;47.482;8.770;2023-01-31T09:41:18;97344.00;;;6.95;68.57
36386;BME280;24125;47.482;8.770;2023-01-31T09:43:57;97341.34;;;6.95;68.61
36386;BME280;24125;47.482;8.770;2023-01-31T09:46:34;97345.06;;;6.94;68.67
36386;BME280;24125;47.482;8.770;2023-01-31T09:49:14;97342.66;;;6.97;68.78
36386;BME280;24125;47.482;8.770;2023-01-31T09:51:53;97343.72;;;6.96;68.67
36386;BME280;24125;47.482;8.770;2023-01-31T09:54:30;97338.41;;;6.96;68.62
36386;BME280;24125;47.482;8.770;2023-01-31T09:57:12;97345.84;;;6.99;68.56
36386;BME280;24125;47.482;8.770;2023-01-31T09:59:59;97355.09;;;7.02;68.83
36386;BME280;24125;47.482;8.770;2023-01-31T10:02:54;97358.00;;;7.05;69.63
36386;BME280;24125;47.482;8.770;2023-01-31T10:05:38;97349.22;;;7.10;70.01
36386;BME280;24125;47.482;8.770;2023-01-31T10:08:18;97352.88;;;7.19;70.41
36386;BME280;24125;47.482;8.770;2023-01-31T10:10:54;97351.50;;;7.27;70.51
36386;BME280;24125;47.482;8.770;2023-01-31T10:13:33;97354.34;;;7.40;69.97
36386;BME280;24125;47.482;8.770;2023-01-31T10:16:14;97339.94;;;7.51;70.36
36386;BME280;24125;47.482;8.770;2023-01-31T10:18:53;97346.22;;;7.66;70.42
36386;BME280;24125;47.482;8.770;2023-01-31T10:21:35;97345.81;;;7.82;70.47
36386;BME280;24125;47.482;8.770;2023-01-31T10:24:16;97340.59;;;8.01;70.79
36386;BME280;24125;47.482;8.770;2023-01-31T10:26:56;97340.69;;;8.20;70.46
36386;BME280;24125;47.482;8.770;2023-01-31T10:29:33;97339.69;;;8.40;70.35
36386;BME280;24125;47.482;8.770;2023-01-31T10:32:14;97332.28;;;8.60;70.18
36386;BME280;24125;47.482;8.770;2023-01-31T10:34:52;97333.13;;;8.80;70.42
36386;BME280;24125;47.482;8.770;2023-01-31T10:37:36;97330.19;;;9.00;69.68
36386;BME280;24125;47.482;8.770;2023-01-31T10:40:13;97323.00;;;9.19;69.61
36386;BME280;24125;47.482;8.770;2023-01-31T10:42:49;97316.31;;;9.40;69.38
36386;BME280;24125;47.482;8.770;2023-01-31T10:45:25;97318.66;;;9.61;68.72
36386;BME280;24125;47.482;8.770;2023-01-31T10:48:13;97319.94;;;9.82;67.73
36386;BME280;24125;47.482;8.770;2023-01-31T10:50:57;97321.75;;;10.00;66.63
36386;BME280;24125;47.482;8.770;2023-01-31T10:53:47;97312.97;;;10.13;66.71
36386;BME280;24125;47.482;8.770;2023-01-31T10:56:26;97301.56;;;10.27;66.42
36386;BME280;24125;47.482;8.770;2023-01-31T10:59:04;97307.19;;;10.39;66.15
36386;BME280;24125;47.482;8.770;2023-01-31T11:01:38;97299.28;;;10.47;66.16
36386;BME280;24125;47.482;8.770;2023-01-31T11:04:22;97288.63;;;10.61;65.64
36386;BME280;24125;47.482;8.770;2023-01-31T11:06:56;97292.19;;;10.70;65.68
36386;BME280;24125;47.482;8.770;2023-01-31T11:09:34;97287.41;;;10.81;65.48
36386;BME280;24125;47.482;8.770;2023-01-31T11:12:08;97285.81;;;10.93;64.99
36386;BME280;24125;47.482;8.770;2023-01-31T11:14:41;97284.78;;;11.03;65.37
36386;BME280;24125;47.482;8.770;2023-01-31T11:17:16;97283.16;;;11.16;65.02
36386;BME280;24125;47.482;8.770;2023-01-31T11:19:52;97286.09;;;11.28;65.05
36386;BME280;24125;47.482;8.770;2023-01-31T11:22:29;97277.06;;;11.38;64.04
36386;BME280;24125;47.482;8.770;2023-01-31T11:25:05;97253.56;;;11.48;64.28
36386;BME280;24125;47.482;8.770;2023-01-31T11:27:39;97256.59;;;11.55;63.20
36386;BME280;24125;47.482;8.770;2023-01-31T11:30:20;97258.53;;;11.63;62.69
36386;BME280;24125;47.482;8.770;2023-01-31T11:32:55;97247.03;;;11.63;62.37
36386;BME280;24125;47.482;8.770;2023-01-31T11:35:29;97246.44;;;11.66;62.23
36386;BME280;24125;47.482;8.770;2023-01-31T11:38:19;97253.03;;;11.68;62.04
36386;BME280;24125;47.482;8.770;2023-01-31T11:40:54;97262.19;;;11.67;62.13
36386;BME280;24125;47.482;8.770;2023-01-31T11:43:31;97251.16;;;11.69;61.55
36386;BME280;24125;47.482;8.770;2023-01-31T11:46:06;97253.53;;;11.70;62.44
36386;BME280;24125;47.482;8.770;2023-01-31T11:48:41;97243.91;;;11.69;61.89
36386;BME280;24125;47.482;8.770;2023-01-31T11:51:23;97242.53;;;11.72;61.63
36386;BME280;24125;47.482;8.770;2023-01-31T11:53:57;97232.13;;;11.70;61.73
36386;BME280;24125;47.482;8.770;2023-01-31T11:56:34;97227.25;;;11.72;61.47
36386;BME280;24125;47.482;8.770;2023-01-31T11:59:12;97221.63;;;11.74;61.63
36386;BME280;24125;47.482;8.770;2023-01-31T12:01:50;97208.84;;;11.71;61.90
36386;BME280;24125;47.482;8.770;2023-01-31T12:04:27;97213.88;;;11.72;60.49
36386;BME280;24125;47.482;8.770;2023-01-31T12:07:04;97219.84;;;11.69;60.46
36386;BME280;24125;47.482;8.770;2023-01-31T12:09:42;97228.97;;;11.68;59.25
36386;BME280;24125;47.482;8.770;2023-01-31T12:12:41;97220.59;;;11.61;60.33
36386;BME280;24125;47.482;8.770;2023-01-31T12:15:18;97210.47;;;11.50;60.03
36386;BME280;24125;47.482;8.770;2023-01-31T12:17:51;97211.00;;;11.38;59.09
36386;BME280;24125;47.482;8.770;2023-01-31T12:20:34;97209.50;;;11.23;58.32
36386;BME280;24125;47.482;8.770;2023-01-31T12:23:21;97211.25;;;11.06;58.85
36386;BME280;24125;47.482;8.770;2023-01-31T12:26:08;97222.88;;;10.87;58.97
36386;BME280;24125;47.482;8.770;2023-01-31T12:28:56;97231.84;;;10.69;58.69
36386;BME280;24125;47.482;8.770;2023-01-31T12:31:54;97237.50;;;10.54;59.66
36386;BME280;24125;47.482;8.770;2023-01-31T12:34:41;97230.09;;;10.37;59.42
36386;BME280;24125;47.482;8.770;2023-01-31T12:37:40;97224.75;;;10.24;59.52
36386;BME280;24125;47.482;8.770;2023-01-31T12:40:36;97229.47;;;10.13;59.97
36386;BME280;24125;47.482;8.770;2023-01-31T12:43:21;97225.31;;;10.07;60.62
36386;BME280;24125;47.482;8.770;2023-01-31T12:46:05;97224.63;;;10.01;60.82
36386;BME280;24125;47.482;8.770;2023-01-31T12:51:41;97231.84;;;10.01;59.89
36386;BME280;24125;47.482;8.770;2023-01-31T12:54:31;97229.47;;;9.99;61.03
36386;BME280;24125;47.482;8.770;2023-01-31T12:57:13;97222.03;;;9.96;60.91
36386;BME280;24125;47.482;8.770;2023-01-31T12:59:54;97220.97;;;9.97;61.12
36386;BME280;24125;47.482;8.770;2023-01-31T13:02:38;97204.94;;;9.97;61.34
36386;BME280;24125;47.482;8.770;2023-01-31T13:05:24;97215.91;;;9.96;60.59
36386;BME280;24125;47.482;8.770;2023-01-31T13:08:02;97202.28;;;9.97;61.47
36386;BME280;24125;47.482;8.770;2023-01-31T13:10:40;97221.47;;;9.99;62.15
36386;BME280;24125;47.482;8.770;2023-01-31T13:13:17;97217.09;;;10.03;61.68
36386;BME280;24125;47.482;8.770;2023-01-31T13:15:55;97217.03;;;10.08;61.67
36386;BME280;24125;47.482;8.770;2023-01-31T13:18:33;97209.41;;;10.15;61.28
36386;BME280;24125;47.482;8.770;2023-01-31T13:21:08;97201.53;;;10.24;62.38
36386;BME280;24125;47.482;8.770;2023-01-31T13:23:48;97194.41;;;10.33;61.91
36386;BME280;24125;47.482;8.770;2023-01-31T13:26:27;97193.13;;;10.44;61.45
36386;BME280;24125;47.482;8.770;2023-01-31T13:29:05;97184.56;;;10.56;61.34
36386;BME280;24125;47.482;8.770;2023-01-31T13:31:45;97197.69;;;10.66;61.76
36386;BME280;24125;47.482;8.770;2023-01-31T13:34:24;97196.19;;;10.74;60.39
36386;BME280;24125;47.482;8.770;2023-01-31T13:37:00;97196.28;;;10.82;61.01
36386;BME280;24125;47.482;8.770;2023-01-31T13:39:36;97181.53;;;10.85;61.04
36386;BME280;24125;47.482;8.770;2023-01-31T13:42:13;97183.78;;;10.91;60.97
36386;BME280;24125;47.482;8.770;2023-01-31T13:44:47;97185.06;;;10.94;60.70
36386;BME280;24125;47.482;8.770;2023-01-31T13:47:24;97177.41;;;11.01;60.39
36386;BME280;24125;47.482;8.770;2023-01-31T13:50:03;97173.06;;;11.05;60.07
36386;BME280;24125;47.482;8.770;2023-01-31T13:52:40;97175.59;;;11.10;60.44
36386;BME280;24125;47.482;8.770;2023-01-31T13:55:19;97163.81;;;11.11;59.97
36386;BME280;24125;47.482;8.770;2023-01-31T13:57:55;97168.56;;;11.14;59.95
36386;BME280;24125;47.482;8.770;2023-01-31T14:00:37;97182.88;;;11.18;58.84
36386;BME280;24125;47.482;8.770;2023-01-31T14:03:12;97187.72;;;11.16;59.86
36386;BME280;24125;47.482;8.770;2023-01-31T14:05:53;97185.56;;;11.18;59.07